Time,TemperatureF,DewpointF,PressureIn,WindDirection,WindDirectionDegrees,WindSpeedMPH,WindSpeedGustMPH,Humidity,HourlyPrecipIn,Conditions,Clouds,dailyrainin,SoftwareType,DateUTC
2013-03-29 00:00:00,32.0,28.5,30.35,NW,309,0.0,0.0,87,0.00,,,0.00,perl,2013-03-29 04:00:00,
2013-03-29 00:01:00,32.0,28.5,30.35,NW,309,0.0,0.0,87,0.00,,,0.00,perl,2013-03-29 04:01:00,
2013-03-29 00:05:00,32.0,28.5,30.35,NW,309,0.0,0.0,87,0.00,,,0.00,perl,2013-03-29 04:05:00,
2013-03-29 00:09:00,31.9,28.4,30.35,NW,309,0.0,0.0,87,0.00,,,0.00,perl,2013-03-29 04:09:00,
2013-03-29 00:15:00,31.8,28.3,30.35,NW,309,0.0,0.0,87,0.00,,,0.00,perl,2013-03-29 04:15:00,
2013-03-29 00:20:00,31.7,28.2,30.35,NW,309,0.0,0.0,87,0.00,,,0.00,perl,2013-03-29 04:20:00,
2013-03-29 00:25:00,31.6,28.1,30.35,NW,309,0.0,0.0,87,0.00,,,0.00,perl,2013-03-29 04:25:00,
2013-03-29 00:30:00,31.6,28.1,30.35,NW,309,0.0,0.0,87,0.00,,,0.00,perl,2013-03-29 04:30:00,
2013-03-29 00:35:00,31.5,28.0,30.35,NW,309,0.0,0.0,87,0.00,,,0.00,perl,2013-03-29 04:35:00,
2013-03-29 00:40:00,31.4,27.9,30.35,NW,309,0.0,0.0,87,0.00,,,0.00,perl,2013-03-29 04:40:00,
2013-03-29 00:45:00,31.3,27.8,30.35,NW,309,0.0,0.0,87,0.00,,,0.00,perl,2013-03-29 04:45:00,
2013-03-29 00:50:00,31.2,27.7,30.35,NW,309,0.0,0.0,87,0.00,,,0.00,perl,2013-03-29 04:50:00,
2013-03-29 00:55:00,31.1,27.6,30.35,NW,309,0.0,0.0,87,0.00,,,0.00,perl,2013-03-29 04:55:00,
2013-03-29 01:00:00,31.0,27.8,30.35,NW,309,0.0,0.0,88,0.00,,,0.00,perl,2013-03-29 05:00:00,
2013-03-29 01:05:00,31.0,27.8,30.35,NW,309,0.0,0.0,88,0.00,,,0.00,perl,2013-03-29 05:05:00,
2013-03-29 01:10:00,30.9,28.0,30.35,NW,309,0.0,0.0,89,0.00,,,0.00,perl,2013-03-29 05:10:00,
2013-03-29 01:15:00,30.8,27.9,30.35,NW,307,0.0,0.0,89,0.00,,,0.00,perl,2013-03-29 05:15:00,
2013-03-29 01:20:00,30.7,27.8,30.35,NW,309,0.0,0.0,89,0.00,,,0.00,perl,2013-03-29 05:20:00,
2013-03-29 01:25:00,30.5,27.6,30.35,NW,309,0.0,0.0,89,0.00,,,0.00,perl,2013-03-29 05:25:00,
2013-03-29 01:30:00,30.3,27.4,30.35,NW,309,0.0,0.0,89,0.00,,,0.00,perl,2013-03-29 05:30:00,
2013-03-29 01:35:00,30.3,27.4,30.35,NW,309,0.0,0.0,89,0.00,,,0.00,perl,2013-03-29 05:35:00,
2013-03-29 01:40:00,30.2,27.3,30.35,NW,309,0.0,0.0,89,0.00,,,0.00,perl,2013-03-29 05:40:00,
2013-03-29 01:46:00,30.2,27.3,30.35,NW,309,0.0,0.0,89,0.00,,,0.00,perl,2013-03-29 05:46:00,
2013-03-29 01:51:00,30.1,27.2,30.35,NW,309,0.0,0.0,89,0.00,,,0.00,perl,2013-03-29 05:51:00,
2013-03-29 01:57:00,30.0,27.4,30.35,NW,309,0.0,0.0,90,0.00,,,0.00,perl,2013-03-29 05:57:00,
2013-03-29 02:02:00,30.0,27.4,30.35,NW,309,0.0,0.0,90,0.00,,,0.00,perl,2013-03-29 06:02:00,
2013-03-29 02:07:00,30.0,27.4,30.35,NW,309,0.0,0.0,90,0.00,,,0.00,perl,2013-03-29 06:07:00,
2013-03-29 02:12:00,30.0,27.4,30.35,NW,309,0.0,0.0,90,0.00,,,0.00,perl,2013-03-29 06:12:00,
2013-03-29 02:17:00,30.0,27.4,30.35,NW,309,0.0,0.0,90,0.00,,,0.00,perl,2013-03-29 06:17:00,
2013-03-29 02:23:00,29.9,27.3,30.35,NW,309,0.0,0.0,90,0.00,,,0.00,perl,2013-03-29 06:23:00,
2013-03-29 02:28:00,29.8,27.2,30.35,NW,309,0.0,0.0,90,0.00,,,0.00,perl,2013-03-29 06:28:00,
2013-03-29 02:34:00,29.7,27.1,30.35,NW,309,0.0,0.0,90,0.00,,,0.00,perl,2013-03-29 06:34:00,
2013-03-29 02:39:00,29.6,27.0,30.35,NW,309,0.0,0.0,90,0.00,,,0.00,perl,2013-03-29 06:39:00,
2013-03-29 02:44:00,29.5,26.9,30.35,NW,309,0.0,0.0,90,0.00,,,0.00,perl,2013-03-29 06:44:00,
2013-03-29 02:49:00,29.4,26.8,30.35,NW,308,0.0,0.0,90,0.00,,,0.00,perl,2013-03-29 06:49:00,
2013-03-29 02:54:00,29.4,26.8,30.35,NW,309,0.0,0.0,90,0.00,,,0.00,perl,2013-03-29 06:54:00,
2013-03-29 02:59:00,29.3,27.0,30.35,NW,309,0.0,0.0,91,0.00,,,0.00,perl,2013-03-29 06:59:00,
2013-03-29 03:04:00,29.3,27.0,30.35,NW,309,0.0,0.0,91,0.00,,,0.00,perl,2013-03-29 07:04:00,
2013-03-29 03:09:00,29.3,27.0,30.35,NW,309,0.0,0.0,91,0.00,,,0.00,perl,2013-03-29 07:09:00,
2013-03-29 03:14:00,29.1,26.8,30.35,NW,309,0.0,0.0,91,0.00,,,0.00,perl,2013-03-29 07:14:00,
2013-03-29 03:19:00,29.0,26.7,30.35,NW,307,0.0,0.0,91,0.00,,,0.00,perl,2013-03-29 07:19:00,
2013-03-29 03:24:00,28.9,26.6,30.35,NW,309,0.0,0.0,91,0.00,,,0.00,perl,2013-03-29 07:24:00,
2013-03-29 03:29:00,28.8,26.5,30.35,NW,309,0.0,0.0,91,0.00,,,0.00,perl,2013-03-29 07:29:00,
2013-03-29 03:34:00,28.7,26.4,30.35,NW,309,0.0,0.0,91,0.00,,,0.00,perl,2013-03-29 07:34:00,
2013-03-29 03:39:00,28.7,26.4,30.35,NW,309,0.0,0.0,91,0.00,,,0.00,perl,2013-03-29 07:39:00,
2013-03-29 03:44:00,28.6,26.5,30.34,NW,309,0.0,0.0,92,0.00,,,0.00,perl,2013-03-29 07:44:00,
2013-03-29 03:49:00,28.5,26.4,30.34,NW,309,0.0,0.0,92,0.00,,,0.00,perl,2013-03-29 07:49:00,
2013-03-29 03:54:00,28.5,26.4,30.34,NW,309,0.0,0.0,92,0.00,,,0.00,perl,2013-03-29 07:54:00,
2013-03-29 03:59:00,28.6,26.5,30.34,NW,309,0.0,0.0,92,0.00,,,0.00,perl,2013-03-29 07:59:00,
2013-03-29 04:04:00,28.5,26.4,30.34,NW,309,0.0,0.0,92,0.00,,,0.00,perl,2013-03-29 08:04:00,
2013-03-29 04:09:00,28.5,26.4,30.34,NW,309,0.0,0.0,92,0.00,,,0.00,perl,2013-03-29 08:09:00,
2013-03-29 04:14:00,28.3,26.2,30.34,NW,309,0.0,0.0,92,0.00,,,0.00,perl,2013-03-29 08:14:00,
2013-03-29 04:19:00,28.1,26.3,30.34,NW,309,0.0,0.0,93,0.00,,,0.00,perl,2013-03-29 08:19:00,
2013-03-29 04:24:00,27.9,25.8,30.34,NW,309,0.0,0.0,92,0.00,,,0.00,perl,2013-03-29 08:24:00,
2013-03-29 04:29:00,27.9,26.1,30.34,NW,309,0.0,0.0,93,0.00,,,0.00,perl,2013-03-29 08:29:00,
2013-03-29 04:34:00,27.8,26.0,30.34,NW,309,0.0,0.0,93,0.00,,,0.00,perl,2013-03-29 08:34:00,
2013-03-29 04:39:00,27.8,26.0,30.34,NW,309,0.0,0.0,93,0.00,,,0.00,perl,2013-03-29 08:39:00,
2013-03-29 04:44:00,27.6,25.8,30.34,NW,309,0.0,0.0,93,0.00,,,0.00,perl,2013-03-29 08:44:00,
2013-03-29 04:49:00,27.5,25.7,30.34,NW,309,0.0,0.0,93,0.00,,,0.00,perl,2013-03-29 08:49:00,
2013-03-29 04:54:00,27.3,25.5,30.34,NW,309,0.0,0.0,93,0.00,,,0.00,perl,2013-03-29 08:54:00,
2013-03-29 04:59:00,27.1,25.3,30.34,NW,309,0.0,0.0,93,0.00,,,0.00,perl,2013-03-29 08:59:00,
2013-03-29 05:04:00,27.0,25.2,30.34,NW,309,0.0,0.0,93,0.00,,,0.00,perl,2013-03-29 09:04:00,
2013-03-29 05:09:00,27.2,25.4,30.34,NW,309,0.0,0.0,93,0.00,,,0.00,perl,2013-03-29 09:09:00,
2013-03-29 05:14:00,27.3,25.5,30.34,NW,309,0.0,0.0,93,0.00,,,0.00,perl,2013-03-29 09:14:00,
2013-03-29 05:19:00,27.2,25.4,30.34,NW,309,0.0,0.0,93,0.00,,,0.00,perl,2013-03-29 09:19:00,
2013-03-29 05:24:00,27.2,25.4,30.34,NW,309,0.0,0.0,93,0.00,,,0.00,perl,2013-03-29 09:24:00,
2013-03-29 05:29:00,27.2,25.4,30.34,NW,309,0.0,0.0,93,0.00,,,0.00,perl,2013-03-29 09:29:00,
2013-03-29 05:34:00,27.2,25.4,30.34,NW,309,0.0,0.0,93,0.00,,,0.00,perl,2013-03-29 09:34:00,
2013-03-29 05:39:00,27.3,25.5,30.34,NW,309,0.0,0.0,93,0.00,,,0.00,perl,2013-03-29 09:39:00,
2013-03-29 05:44:00,27.2,25.4,30.34,NW,309,0.0,0.0,93,0.00,,,0.00,perl,2013-03-29 09:44:00,
2013-03-29 05:49:00,27.2,25.7,30.34,NW,309,0.0,0.0,94,0.00,,,0.00,perl,2013-03-29 09:49:00,
2013-03-29 05:54:00,27.2,25.4,30.34,NW,309,0.0,0.0,93,0.00,,,0.00,perl,2013-03-29 09:54:00,
2013-03-29 05:59:00,27.1,25.6,30.34,NW,309,0.0,0.0,94,0.00,,,0.00,perl,2013-03-29 09:59:00,
2013-03-29 06:04:00,27.0,25.5,30.34,NW,309,0.0,0.0,94,0.00,,,0.00,perl,2013-03-29 10:04:00,
2013-03-29 06:09:00,26.9,25.4,30.34,NW,309,0.0,0.0,94,0.00,,,0.00,perl,2013-03-29 10:09:00,
2013-03-29 06:14:00,26.8,25.3,30.34,NW,309,0.0,0.0,94,0.00,,,0.00,perl,2013-03-29 10:14:00,
2013-03-29 06:19:00,26.7,25.2,30.34,NW,309,0.0,0.0,94,0.00,,,0.00,perl,2013-03-29 10:19:00,
2013-03-29 06:24:00,26.7,25.2,30.34,NW,309,0.0,0.0,94,0.00,,,0.00,perl,2013-03-29 10:24:00,
2013-03-29 06:29:00,26.5,25.0,30.34,NW,309,0.0,0.0,94,0.00,,,0.00,perl,2013-03-29 10:29:00,
2013-03-29 06:34:00,26.4,24.9,30.34,NW,309,0.0,0.0,94,0.00,,,0.00,perl,2013-03-29 10:34:00,
2013-03-29 06:39:00,26.3,24.8,30.34,NW,309,0.0,0.0,94,0.00,,,0.00,perl,2013-03-29 10:39:00,
2013-03-29 06:44:00,26.2,24.7,30.35,NW,309,0.0,0.0,94,0.00,,,0.00,perl,2013-03-29 10:44:00,
2013-03-29 06:49:00,26.1,24.6,30.35,NW,309,0.0,0.0,94,0.00,,,0.00,perl,2013-03-29 10:49:00,
2013-03-29 06:54:00,26.0,24.5,30.35,NW,309,0.0,0.0,94,0.00,,,0.00,perl,2013-03-29 10:54:00,
2013-03-29 07:00:00,25.9,24.4,30.35,NW,309,0.0,0.0,94,0.00,,,0.00,perl,2013-03-29 11:00:00,
2013-03-29 07:05:00,26.1,24.6,30.35,NW,309,0.0,0.0,94,0.00,,,0.00,perl,2013-03-29 11:05:00,
2013-03-29 07:11:00,26.1,24.6,30.35,NW,309,0.0,0.0,94,0.00,,,0.00,perl,2013-03-29 11:11:00,
2013-03-29 07:17:00,26.0,24.5,30.35,NW,309,0.0,0.0,94,0.00,,,0.00,perl,2013-03-29 11:17:00,
2013-03-29 07:23:00,26.1,24.6,30.35,NW,309,0.0,0.0,94,0.00,,,0.00,perl,2013-03-29 11:23:00,
2013-03-29 07:28:00,26.2,24.7,30.35,NW,309,0.0,0.0,94,0.00,,,0.00,perl,2013-03-29 11:28:00,
2013-03-29 07:33:00,26.2,24.9,30.35,NW,309,0.0,0.0,95,0.00,,,0.00,perl,2013-03-29 11:33:00,
2013-03-29 07:38:00,26.2,24.9,30.35,NW,309,0.0,0.0,95,0.00,,,0.00,perl,2013-03-29 11:38:00,
2013-03-29 07:43:00,26.1,24.8,30.35,NW,309,0.0,0.0,95,0.00,,,0.00,perl,2013-03-29 11:43:00,
2013-03-29 07:48:00,26.1,24.8,30.35,NW,308,0.0,0.0,95,0.00,,,0.00,perl,2013-03-29 11:48:00,
2013-03-29 07:53:00,26.1,24.6,30.35,NW,309,0.0,0.0,94,0.00,,,0.00,perl,2013-03-29 11:53:00,
2013-03-29 07:58:00,26.1,24.8,30.35,NW,309,0.0,0.0,95,0.00,,,0.00,perl,2013-03-29 11:58:00,
2013-03-29 08:03:00,26.3,25.0,30.35,NW,309,0.0,0.0,95,0.00,,,0.00,perl,2013-03-29 12:03:00,
2013-03-29 08:08:00,26.5,25.2,30.35,NW,309,0.0,0.0,95,0.00,,,0.00,perl,2013-03-29 12:08:00,
2013-03-29 08:13:00,26.7,25.4,30.35,NW,309,0.0,0.0,95,0.00,,,0.00,perl,2013-03-29 12:13:00,
2013-03-29 08:18:00,27.1,25.8,30.35,NW,309,0.0,0.0,95,0.00,,,0.00,perl,2013-03-29 12:18:00,
2013-03-29 08:23:00,27.4,26.1,30.35,NW,309,0.0,0.0,95,0.00,,,0.00,perl,2013-03-29 12:23:00,
2013-03-29 08:28:00,27.9,26.6,30.35,NW,309,0.0,0.0,95,0.00,,,0.00,perl,2013-03-29 12:28:00,
2013-03-29 08:33:00,28.5,27.5,30.36,NW,309,0.0,0.0,96,0.00,,,0.00,perl,2013-03-29 12:33:00,
2013-03-29 08:38:00,29.4,28.4,30.36,NW,308,0.0,0.0,96,0.00,,,0.00,perl,2013-03-29 12:38:00,
2013-03-29 08:43:00,30.1,29.1,30.36,NW,308,0.0,0.0,96,0.00,,,0.00,perl,2013-03-29 12:43:00,
2013-03-29 08:48:00,30.6,29.6,30.36,NW,309,0.0,0.0,96,0.00,,,0.00,perl,2013-03-29 12:48:00,
2013-03-29 08:53:00,31.0,30.0,30.36,NW,309,0.0,0.0,96,0.00,,,0.00,perl,2013-03-29 12:53:00,
2013-03-29 08:58:00,31.7,30.7,30.36,NW,309,0.0,0.0,96,0.00,,,0.00,perl,2013-03-29 12:58:00,
2013-03-29 09:03:00,32.6,31.3,30.36,NW,309,0.0,0.0,95,0.00,,,0.00,perl,2013-03-29 13:03:00,
2013-03-29 09:08:00,33.4,31.8,30.36,NW,309,0.0,0.0,94,0.00,,,0.00,perl,2013-03-29 13:08:00,
2013-03-29 09:13:00,34.0,32.1,30.36,NW,309,0.0,0.0,93,0.00,,,0.00,perl,2013-03-29 13:13:00,
2013-03-29 09:18:00,34.4,32.3,30.36,NW,309,0.0,0.0,92,0.00,,,0.00,perl,2013-03-29 13:18:00,
2013-03-29 09:23:00,35.3,32.9,30.36,NW,309,0.0,0.0,91,0.00,,,0.00,perl,2013-03-29 13:23:00,
2013-03-29 09:28:00,35.9,32.9,30.36,NW,309,0.0,0.0,89,0.00,,,0.00,perl,2013-03-29 13:28:00,
2013-03-29 09:34:00,36.9,33.4,30.36,NW,309,0.0,0.0,87,0.00,,,0.00,perl,2013-03-29 13:34:00,
2013-03-29 09:39:00,38.1,33.7,30.36,NE,39,0.0,0.0,84,0.00,,,0.00,perl,2013-03-29 13:39:00,
2013-03-29 09:44:00,39.3,34.0,30.36,NE,39,0.0,0.0,81,0.00,,,0.00,perl,2013-03-29 13:44:00,
2013-03-29 09:49:00,40.2,33.0,30.36,NE,41,0.0,0.0,75,0.00,,,0.00,perl,2013-03-29 13:49:00,
2013-03-29 09:54:00,41.3,32.3,30.36,WSW,238,0.0,0.0,70,0.00,,,0.00,perl,2013-03-29 13:54:00,
2013-03-29 09:59:00,42.1,32.0,30.37,SSW,202,0.0,0.0,67,0.00,,,0.00,perl,2013-03-29 13:59:00,
2013-03-29 10:04:00,42.8,32.3,30.37,South,184,1.0,0.0,66,0.00,,,0.00,perl,2013-03-29 14:04:00,
2013-03-29 10:09:00,43.3,32.4,30.37,SSW,198,0.0,0.0,65,0.00,,,0.00,perl,2013-03-29 14:09:00,
2013-03-29 10:14:00,43.9,32.6,30.36,SSW,202,0.0,0.0,64,0.00,,,0.00,perl,2013-03-29 14:14:00,
2013-03-29 10:19:00,44.5,32.8,30.36,SSW,208,0.0,0.0,63,0.00,,,0.00,perl,2013-03-29 14:19:00,
2013-03-29 10:24:00,45.0,32.4,30.36,SW,219,0.0,0.0,61,0.00,,,0.00,perl,2013-03-29 14:24:00,
2013-03-29 10:29:00,45.5,32.9,30.36,SSW,213,0.0,0.0,61,0.00,,,0.00,perl,2013-03-29 14:29:00,
2013-03-29 10:34:00,45.9,32.9,30.36,SW,224,0.0,0.0,60,0.00,,,0.00,perl,2013-03-29 14:34:00,
2013-03-29 10:39:00,46.5,33.0,30.36,East,90,0.0,0.0,59,0.00,,,0.00,perl,2013-03-29 14:39:00,
2013-03-29 10:44:00,46.9,32.5,30.36,South,178,0.0,0.0,57,0.00,,,0.00,perl,2013-03-29 14:44:00,
2013-03-29 10:49:00,47.2,32.8,30.36,SSW,200,0.0,0.0,57,0.00,,,0.00,perl,2013-03-29 14:49:00,
2013-03-29 10:54:00,47.8,32.4,30.36,SSW,200,0.0,0.0,55,0.00,,,0.00,perl,2013-03-29 14:54:00,
2013-03-29 10:59:00,48.5,33.1,30.36,SSW,202,0.0,0.0,55,0.00,,,0.00,perl,2013-03-29 14:59:00,
2013-03-29 11:04:00,49.2,33.3,30.36,SW,219,2.0,0.0,54,0.00,,,0.00,perl,2013-03-29 15:04:00,
2013-03-29 11:09:00,49.7,33.3,30.36,SSW,209,3.0,3.0,53,0.00,,,0.00,perl,2013-03-29 15:09:00,
2013-03-29 11:14:00,49.9,33.0,30.35,SW,216,0.0,1.0,52,0.00,,,0.00,perl,2013-03-29 15:14:00,
2013-03-29 11:19:00,50.2,33.2,30.35,SSW,202,2.0,2.0,52,0.00,,,0.00,perl,2013-03-29 15:19:00,
2013-03-29 11:24:00,51.0,33.5,30.35,SSW,200,0.0,1.0,51,0.00,,,0.00,perl,2013-03-29 15:24:00,
2013-03-29 11:29:00,51.5,33.4,30.35,South,190,1.0,1.0,50,0.00,,,0.00,perl,2013-03-29 15:29:00,
2013-03-29 11:34:00,51.9,33.3,30.35,SSW,209,1.0,1.0,49,0.00,,,0.00,perl,2013-03-29 15:34:00,
2013-03-29 11:39:00,52.3,33.1,30.35,SW,219,0.0,3.0,48,0.00,,,0.00,perl,2013-03-29 15:39:00,
2013-03-29 11:44:00,52.7,33.0,30.35,SSW,203,0.0,2.0,47,0.00,,,0.00,perl,2013-03-29 15:44:00,
2013-03-29 11:49:00,53.1,32.2,30.35,SE,128,0.0,1.0,45,0.00,,,0.00,perl,2013-03-29 15:49:00,
2013-03-29 11:54:00,53.1,32.2,30.35,SW,220,2.0,2.0,45,0.00,,,0.00,perl,2013-03-29 15:54:00,
2013-03-29 11:59:00,53.0,31.5,30.34,West,268,0.0,1.0,44,0.00,,,0.00,perl,2013-03-29 15:59:00,
2013-03-29 12:04:00,53.4,33.0,30.34,SW,229,3.0,3.0,46,0.00,,,0.00,perl,2013-03-29 16:04:00,
2013-03-29 12:09:00,53.9,32.4,30.34,SSW,211,5.0,5.0,44,0.00,,,0.00,perl,2013-03-29 16:09:00,
2013-03-29 12:14:00,54.3,32.7,30.34,SSE,164,4.0,4.0,44,0.00,,,0.00,perl,2013-03-29 16:14:00,
2013-03-29 12:19:00,54.5,32.3,30.34,SE,138,0.0,1.0,43,0.00,,,0.00,perl,2013-03-29 16:19:00,
2013-03-29 12:24:00,55.2,33.0,30.34,North,5,1.0,1.0,43,0.00,,,0.00,perl,2013-03-29 16:24:00,
2013-03-29 12:29:00,54.8,32.0,30.33,North,350,3.0,3.0,42,0.00,,,0.00,perl,2013-03-29 16:29:00,
2013-03-29 12:34:00,54.7,33.1,30.33,NE,34,3.0,3.0,44,0.00,,,0.00,perl,2013-03-29 16:34:00,
2013-03-29 12:39:00,54.9,32.7,30.33,SW,232,6.0,6.0,43,0.00,,,0.00,perl,2013-03-29 16:39:00,
2013-03-29 12:44:00,54.5,31.7,30.33,ESE,115,1.0,3.0,42,0.00,,,0.00,perl,2013-03-29 16:44:00,
2013-03-29 12:49:00,55.3,33.0,30.33,SSW,211,0.0,2.0,43,0.00,,,0.00,perl,2013-03-29 16:49:00,
2013-03-29 12:54:00,56.5,33.5,30.33,WSW,252,1.0,1.0,42,0.00,,,0.00,perl,2013-03-29 16:54:00,
2013-03-29 12:59:00,57.2,33.6,30.32,NNW,334,0.0,1.0,41,0.00,,,0.00,perl,2013-03-29 16:59:00,
2013-03-29 13:04:00,57.6,33.9,30.32,SW,230,1.0,1.0,41,0.00,,,0.00,perl,2013-03-29 17:04:00,
2013-03-29 13:10:00,58.4,33.4,30.32,SSW,211,2.0,2.0,39,0.00,,,0.00,perl,2013-03-29 17:10:00,
2013-03-29 13:16:00,58.7,34.3,30.31,SW,215,1.0,2.0,40,0.00,,,0.00,perl,2013-03-29 17:16:00,
2013-03-29 13:21:00,59.0,33.2,30.31,SSW,210,0.0,1.0,38,0.00,,,0.00,perl,2013-03-29 17:21:00,
2013-03-29 13:27:00,59.0,33.2,30.31,West,280,6.0,6.0,38,0.00,,,0.00,perl,2013-03-29 17:27:00,
2013-03-29 13:33:00,58.5,34.1,30.30,South,186,2.0,2.0,40,0.00,,,0.00,perl,2013-03-29 17:33:00,
2013-03-29 13:38:00,59.0,33.9,30.30,SSW,212,5.0,5.0,39,0.00,,,0.00,perl,2013-03-29 17:38:00,
2013-03-29 13:43:00,59.4,33.6,30.30,SSE,167,0.0,2.0,38,0.00,,,0.00,perl,2013-03-29 17:43:00,
2013-03-29 13:48:00,59.9,34.0,30.30,East,80,1.0,1.0,38,0.00,,,0.00,perl,2013-03-29 17:48:00,
2013-03-29 13:53:00,59.3,34.8,30.30,NE,53,1.0,1.0,40,0.00,,,0.00,perl,2013-03-29 17:53:00,
2013-03-29 13:58:00,59.4,34.3,30.30,SSW,199,2.0,2.0,39,0.00,,,0.00,perl,2013-03-29 17:58:00,
2013-03-29 14:03:00,60.1,34.9,30.29,South,170,0.0,1.0,39,0.00,,,0.00,perl,2013-03-29 18:03:00,
2013-03-29 14:09:00,60.6,33.3,30.29,East,87,2.0,2.0,36,0.00,,,0.00,perl,2013-03-29 18:09:00,
2013-03-29 14:15:00,59.0,33.2,30.28,SW,225,1.0,1.0,38,0.00,,,0.00,perl,2013-03-29 18:15:00,
2013-03-29 14:20:00,59.0,32.6,30.28,NW,313,3.0,3.0,37,0.00,,,0.00,perl,2013-03-29 18:20:00,
2013-03-29 14:26:00,59.0,33.2,30.28,SW,229,2.0,2.0,38,0.00,,,0.00,perl,2013-03-29 18:26:00,
2013-03-29 14:31:00,60.1,34.2,30.28,SW,223,1.0,1.0,38,0.00,,,0.00,perl,2013-03-29 18:31:00,
2013-03-29 14:37:00,60.7,34.1,30.28,SW,217,0.0,1.0,37,0.00,,,0.00,perl,2013-03-29 18:37:00,
2013-03-29 14:42:00,61.4,34.0,30.28,SSW,211,0.0,1.0,36,0.00,,,0.00,perl,2013-03-29 18:42:00,
2013-03-29 14:48:00,61.2,32.4,30.27,West,262,0.0,2.0,34,0.00,,,0.00,perl,2013-03-29 18:48:00,
2013-03-29 14:53:00,61.3,33.9,30.27,South,180,0.0,1.0,36,0.00,,,0.00,perl,2013-03-29 18:53:00,
2013-03-29 14:58:00,61.1,32.3,30.27,NE,51,1.0,1.0,34,0.00,,,0.00,perl,2013-03-29 18:58:00,
2013-03-29 15:03:00,61.2,32.4,30.26,NE,52,2.0,2.0,34,0.00,,,0.00,perl,2013-03-29 19:03:00,
2013-03-29 15:09:00,61.4,32.6,30.26,SSW,205,0.0,2.0,34,0.00,,,0.00,perl,2013-03-29 19:09:00,
2013-03-29 15:14:00,62.0,33.8,30.25,SW,221,3.0,3.0,35,0.00,,,0.00,perl,2013-03-29 19:14:00,
2013-03-29 15:20:00,62.0,32.3,30.25,North,350,1.0,1.0,33,0.00,,,0.00,perl,2013-03-29 19:20:00,
2013-03-29 15:25:00,61.4,31.8,30.25,SW,236,7.0,7.0,33,0.00,,,0.00,perl,2013-03-29 19:25:00,
2013-03-29 15:30:00,59.8,31.1,30.25,NW,311,0.0,3.0,34,0.00,,,0.00,perl,2013-03-29 19:30:00,
2013-03-29 15:35:00,59.9,32.0,30.25,SW,228,1.0,1.0,35,0.00,,,0.00,perl,2013-03-29 19:35:00,
2013-03-29 15:40:00,59.4,32.2,30.25,SSW,207,3.0,3.0,36,0.00,,,0.00,perl,2013-03-29 19:40:00,
2013-03-29 15:45:00,59.1,32.0,30.25,SW,235,0.0,1.0,36,0.00,,,0.00,perl,2013-03-29 19:45:00,
2013-03-29 15:50:00,59.5,32.3,30.25,WSW,237,3.0,3.0,36,0.00,,,0.00,perl,2013-03-29 19:50:00,
2013-03-29 15:55:00,59.0,31.9,30.25,SW,214,0.0,1.0,36,0.00,,,0.00,perl,2013-03-29 19:55:00,
2013-03-29 16:00:00,58.9,32.5,30.24,SSW,213,0.0,1.0,37,0.00,,,0.00,perl,2013-03-29 20:00:00,
2013-03-29 16:06:00,58.5,31.4,30.24,ENE,59,3.0,0.0,36,0.00,,,0.00,perl,2013-03-29 20:06:00,
2013-03-29 16:11:00,57.8,31.5,30.24,WNW,301,0.0,1.0,37,0.00,,,0.00,perl,2013-03-29 20:11:00,
2013-03-29 16:17:00,57.8,31.5,30.24,NNW,329,0.0,1.0,37,0.00,,,0.00,perl,2013-03-29 20:17:00,
2013-03-29 16:23:00,57.9,31.6,30.24,ENE,77,2.0,2.0,37,0.00,,,0.00,perl,2013-03-29 20:23:00,
2013-03-29 16:28:00,57.9,31.6,30.24,WSW,243,0.0,2.0,37,0.00,,,0.00,perl,2013-03-29 20:28:00,
2013-03-29 16:33:00,57.9,31.6,30.23,SSE,156,1.0,1.0,37,0.00,,,0.00,perl,2013-03-29 20:33:00,
2013-03-29 16:38:00,58.2,31.8,30.23,SSW,207,0.0,0.0,37,0.00,,,0.00,perl,2013-03-29 20:38:00,
2013-03-29 16:43:00,58.5,32.1,30.23,ENE,67,0.0,1.0,37,0.00,,,0.00,perl,2013-03-29 20:43:00,
2013-03-29 16:48:00,59.0,32.6,30.23,NW,315,0.0,0.0,37,0.00,,,0.00,perl,2013-03-29 20:48:00,
2013-03-29 16:53:00,59.0,31.9,30.23,South,184,0.0,0.0,36,0.00,,,0.00,perl,2013-03-29 20:53:00,
2013-03-29 16:58:00,59.0,31.9,30.23,NE,52,2.0,2.0,36,0.00,,,0.00,perl,2013-03-29 20:58:00,
2013-03-29 17:03:00,59.0,31.9,30.22,NW,316,1.0,0.0,36,0.00,,,0.00,perl,2013-03-29 21:03:00,
2013-03-29 17:09:00,58.7,31.6,30.22,SW,225,0.0,0.0,36,0.00,,,0.00,perl,2013-03-29 21:09:00,
2013-03-29 17:14:00,58.7,32.3,30.22,ENE,61,2.0,0.0,37,0.00,,,0.00,perl,2013-03-29 21:14:00,
2013-03-29 17:19:00,58.6,32.2,30.22,NE,41,0.0,0.0,37,0.00,,,0.00,perl,2013-03-29 21:19:00,
2013-03-29 17:24:00,58.3,31.2,30.22,North,355,2.0,0.0,36,0.00,,,0.00,perl,2013-03-29 21:24:00,
2013-03-29 17:30:00,58.2,31.8,30.22,South,190,0.0,0.0,37,0.00,,,0.00,perl,2013-03-29 21:30:00,
2013-03-29 17:37:00,58.4,32.0,30.22,SW,223,0.0,0.0,37,0.00,,,0.00,perl,2013-03-29 21:37:00,
2013-03-29 17:42:00,58.1,31.8,30.22,SW,230,0.0,1.0,37,0.00,,,0.00,perl,2013-03-29 21:42:00,
2013-03-29 17:47:00,58.1,31.8,30.22,West,271,1.0,1.0,37,0.00,,,0.00,perl,2013-03-29 21:47:00,
2013-03-29 17:52:00,58.1,31.8,30.22,North,349,2.0,2.0,37,0.00,,,0.00,perl,2013-03-29 21:52:00,
2013-03-29 17:57:00,58.0,33.0,30.22,SW,219,0.0,1.0,39,0.00,,,0.00,perl,2013-03-29 21:57:00,
2013-03-29 18:03:00,58.1,33.1,30.22,SW,219,0.0,0.0,39,0.00,,,0.00,perl,2013-03-29 22:03:00,
2013-03-29 18:08:00,58.2,32.5,30.22,SW,215,0.0,0.0,38,0.00,,,0.00,perl,2013-03-29 22:08:00,
2013-03-29 18:13:00,58.0,32.3,30.22,SSW,207,2.0,0.0,38,0.00,,,0.00,perl,2013-03-29 22:13:00,
2013-03-29 18:18:00,58.0,33.0,30.22,SSW,207,0.0,0.0,39,0.00,,,0.00,perl,2013-03-29 22:18:00,
2013-03-29 18:23:00,57.9,32.9,30.22,SSW,204,0.0,0.0,39,0.00,,,0.00,perl,2013-03-29 22:23:00,
2013-03-29 18:28:00,57.8,32.8,30.22,SSW,205,0.0,0.0,39,0.00,,,0.00,perl,2013-03-29 22:28:00,
2013-03-29 18:33:00,57.7,33.4,30.22,SSW,204,0.0,0.0,40,0.00,,,0.00,perl,2013-03-29 22:33:00,
2013-03-29 18:38:00,57.6,32.6,30.22,NNW,348,1.0,0.0,39,0.00,,,0.00,perl,2013-03-29 22:38:00,
2013-03-29 18:43:00,57.3,33.0,30.22,NNE,15,0.0,0.0,40,0.00,,,0.00,perl,2013-03-29 22:43:00,
2013-03-29 18:48:00,57.1,32.2,30.22,WNW,296,0.0,0.0,39,0.00,,,0.00,perl,2013-03-29 22:48:00,
2013-03-29 18:53:00,56.9,32.6,30.22,NNE,17,0.0,0.0,40,0.00,,,0.00,perl,2013-03-29 22:53:00,
2013-03-29 18:58:00,56.8,33.2,30.22,NNE,17,0.0,0.0,41,0.00,,,0.00,perl,2013-03-29 22:58:00,
2013-03-29 19:03:00,56.6,33.0,30.22,NNE,17,0.0,0.0,41,0.00,,,0.00,perl,2013-03-29 23:03:00,
2013-03-29 19:08:00,56.5,32.3,30.22,NNE,17,0.0,0.0,40,0.00,,,0.00,perl,2013-03-29 23:08:00,
2013-03-29 19:13:00,56.4,34.0,30.22,NNE,17,0.0,0.0,43,0.00,,,0.00,perl,2013-03-29 23:13:00,
2013-03-29 19:18:00,56.3,33.4,30.22,NNE,17,0.0,0.0,42,0.00,,,0.00,perl,2013-03-29 23:18:00,
2013-03-29 19:23:00,56.2,33.3,30.22,NNE,17,0.0,0.0,42,0.00,,,0.00,perl,2013-03-29 23:23:00,
2013-03-29 19:28:00,56.0,33.1,30.22,North,5,0.0,0.0,42,0.00,,,0.00,perl,2013-03-29 23:28:00,
2013-03-29 19:33:00,55.9,33.6,30.22,North,5,0.0,0.0,43,0.00,,,0.00,perl,2013-03-29 23:33:00,
2013-03-29 19:38:00,55.6,32.7,30.22,North,5,0.0,0.0,42,0.00,,,0.00,perl,2013-03-29 23:38:00,
2013-03-29 19:43:00,55.3,33.0,30.22,North,360,0.0,0.0,43,0.00,,,0.00,perl,2013-03-29 23:43:00,
2013-03-29 19:48:00,55.0,32.8,30.22,WNW,300,0.0,0.0,43,0.00,,,0.00,perl,2013-03-29 23:48:00,
2013-03-29 19:53:00,54.7,32.5,30.22,WNW,300,0.0,0.0,43,0.00,,,0.00,perl,2013-03-29 23:53:00,
2013-03-29 19:58:00,54.5,32.3,30.22,WNW,299,0.0,0.0,43,0.00,,,0.00,perl,2013-03-29 23:58:00,
2013-03-29 20:03:00,54.2,32.1,30.22,WNW,300,0.0,0.0,43,0.00,,,0.00,perl,2013-03-30 00:03:00,
2013-03-29 20:08:00,54.0,32.5,30.22,WNW,300,0.0,0.0,44,0.00,,,0.00,perl,2013-03-30 00:08:00,
2013-03-29 20:13:00,53.8,33.4,30.22,WNW,300,0.0,0.0,46,0.00,,,0.00,perl,2013-03-30 00:13:00,
2013-03-29 20:18:00,53.4,33.6,30.22,WNW,300,0.0,0.0,47,0.00,,,0.00,perl,2013-03-30 00:18:00,
2013-03-29 20:23:00,53.0,33.2,30.22,WNW,300,0.0,0.0,47,0.00,,,0.00,perl,2013-03-30 00:23:00,
2013-03-29 20:28:00,52.5,34.9,30.22,WNW,300,0.0,0.0,51,0.00,,,0.00,perl,2013-03-30 00:28:00,
2013-03-29 20:34:00,51.9,34.3,30.23,WNW,300,0.0,0.0,51,0.00,,,0.00,perl,2013-03-30 00:34:00,
2013-03-29 20:39:00,51.4,35.3,30.23,WNW,299,0.0,0.0,54,0.00,,,0.00,perl,2013-03-30 00:39:00,
2013-03-29 20:45:00,50.6,34.6,30.23,WNW,300,0.0,0.0,54,0.00,,,0.00,perl,2013-03-30 00:45:00,
2013-03-29 20:50:00,50.3,34.8,30.23,WNW,300,0.0,0.0,55,0.00,,,0.00,perl,2013-03-30 00:50:00,
2013-03-29 20:55:00,50.1,36.0,30.23,WNW,300,0.0,0.0,58,0.00,,,0.00,perl,2013-03-30 00:55:00,
2013-03-29 21:00:00,49.7,36.0,30.24,WNW,300,0.0,0.0,59,0.00,,,0.00,perl,2013-03-30 01:00:00,
2013-03-29 21:05:00,49.4,35.7,30.24,WNW,299,0.0,0.0,59,0.00,,,0.00,perl,2013-03-30 01:05:00,
2013-03-29 21:11:00,49.2,36.0,30.24,WNW,300,0.0,0.0,60,0.00,,,0.00,perl,2013-03-30 01:11:00,
2013-03-29 21:17:00,48.8,36.0,30.24,WNW,300,0.0,0.0,61,0.00,,,0.00,perl,2013-03-30 01:17:00,
2013-03-29 21:23:00,48.4,35.7,30.24,WNW,300,0.0,0.0,61,0.00,,,0.00,perl,2013-03-30 01:23:00,
2013-03-29 21:29:00,47.8,34.7,30.24,WNW,300,0.0,0.0,60,0.00,,,0.00,perl,2013-03-30 01:29:00,
2013-03-29 21:34:00,47.5,35.2,30.24,WNW,300,0.0,0.0,62,0.00,,,0.00,perl,2013-03-30 01:34:00,
2013-03-29 21:40:00,47.1,35.6,30.24,WNW,300,0.0,0.0,64,0.00,,,0.00,perl,2013-03-30 01:40:00,
2013-03-29 21:45:00,46.8,35.4,30.24,WNW,299,0.0,0.0,64,0.00,,,0.00,perl,2013-03-30 01:45:00,
2013-03-29 21:50:00,46.4,35.8,30.24,WNW,300,0.0,0.0,66,0.00,,,0.00,perl,2013-03-30 01:50:00,
2013-03-29 21:55:00,46.0,35.8,30.24,WNW,300,0.0,0.0,67,0.00,,,0.00,perl,2013-03-30 01:55:00,
2013-03-29 22:00:00,45.6,35.7,30.25,WNW,300,0.0,0.0,68,0.00,,,0.00,perl,2013-03-30 02:00:00,
2013-03-29 22:05:00,45.3,35.8,30.25,WNW,300,0.0,0.0,69,0.00,,,0.00,perl,2013-03-30 02:05:00,
2013-03-29 22:10:00,45.1,36.0,30.25,WNW,300,0.0,0.0,70,0.00,,,0.00,perl,2013-03-30 02:10:00,
2013-03-29 22:15:00,45.0,35.5,30.25,WNW,300,0.0,0.0,69,0.00,,,0.00,perl,2013-03-30 02:15:00,
2013-03-29 22:20:00,45.0,35.9,30.25,WNW,300,0.0,0.0,70,0.00,,,0.00,perl,2013-03-30 02:20:00,
2013-03-29 22:25:00,44.9,35.8,30.25,WNW,300,0.0,0.0,70,0.00,,,0.00,perl,2013-03-30 02:25:00,
2013-03-29 22:30:00,44.9,35.4,30.25,WNW,300,0.0,0.0,69,0.00,,,0.00,perl,2013-03-30 02:30:00,
2013-03-29 22:35:00,44.8,35.7,30.25,WNW,300,0.0,0.0,70,0.00,,,0.00,perl,2013-03-30 02:35:00,
2013-03-29 22:40:00,44.6,35.9,30.25,WNW,300,0.0,0.0,71,0.00,,,0.00,perl,2013-03-30 02:40:00,
2013-03-29 22:45:00,44.5,36.1,30.25,WNW,300,0.0,0.0,72,0.00,,,0.00,perl,2013-03-30 02:45:00,
2013-03-29 22:50:00,44.3,36.9,30.25,WNW,300,0.0,0.0,75,0.00,,,0.00,perl,2013-03-30 02:50:00,
2013-03-29 22:55:00,44.2,36.8,30.25,WNW,300,0.0,0.0,75,0.00,,,0.00,perl,2013-03-30 02:55:00,
2013-03-29 23:00:00,44.0,36.3,30.25,WNW,300,0.0,0.0,74,0.00,,,0.00,perl,2013-03-30 03:00:00,
2013-03-29 23:05:00,43.9,36.2,30.25,WNW,300,0.0,0.0,74,0.00,,,0.00,perl,2013-03-30 03:05:00,
2013-03-29 23:10:00,43.8,36.1,30.25,WNW,300,0.0,0.0,74,0.00,,,0.00,perl,2013-03-30 03:10:00,
2013-03-29 23:15:00,43.7,36.0,30.25,WNW,300,0.0,0.0,74,0.00,,,0.00,perl,2013-03-30 03:15:00,
2013-03-29 23:20:00,43.7,36.0,30.25,WNW,300,0.0,0.0,74,0.00,,,0.00,perl,2013-03-30 03:20:00,
2013-03-29 23:25:00,43.7,36.4,30.25,WNW,300,0.0,0.0,75,0.00,,,0.00,perl,2013-03-30 03:25:00,
2013-03-29 23:30:00,43.6,36.6,30.25,WNW,299,0.0,0.0,76,0.00,,,0.00,perl,2013-03-30 03:30:00,
2013-03-29 23:35:00,43.4,36.7,30.25,WNW,299,0.0,0.0,77,0.00,,,0.00,perl,2013-03-30 03:35:00,
2013-03-29 23:40:00,43.3,36.9,30.25,WNW,300,0.0,0.0,78,0.00,,,0.00,perl,2013-03-30 03:40:00,
2013-03-29 23:45:00,43.2,37.2,30.25,WNW,300,0.0,0.0,79,0.00,,,0.00,perl,2013-03-30 03:45:00,
2013-03-29 23:50:00,43.1,37.1,30.25,WNW,300,0.0,0.0,79,0.00,,,0.00,perl,2013-03-30 03:50:00,
2013-03-29 23:55:00,43.1,37.1,30.25,WNW,299,0.0,0.0,79,0.00,,,0.00,perl,2013-03-30 03:55:00,